createdAt,value
2022-07-27T00:02:16.130Z,90.10
2022-07-27T00:04:43.485Z,89.50
2022-07-27T00:07:10.792Z,88.90
2022-07-27T00:09:38.122Z,87.30
2022-07-27T00:12:05.891Z,86.40
2022-07-27T00:14:33.340Z,85.70
2022-07-27T00:17:00.807Z,85.70
2022-07-27T00:19:28.140Z,85.10
2022-07-27T00:21:55.507Z,84.50
2022-07-27T00:24:22.731Z,84.10
2022-07-27T00:26:50.139Z,83.60
2022-07-27T00:29:17.669Z,83.20
2022-07-27T00:31:45.197Z,83.00
2022-07-27T00:34:12.554Z,82.90
2022-07-27T00:36:39.821Z,82.90
2022-07-27T00:39:07.130Z,82.70
2022-07-27T00:41:34.526Z,82.90
2022-07-27T00:44:02.047Z,82.60
2022-07-27T00:46:29.733Z,82.40
2022-07-27T00:48:57.159Z,82.20
2022-07-27T00:51:25.877Z,81.30
2022-07-27T00:53:57.228Z,80.80
2022-07-27T00:56:25.089Z,80.30
2022-07-27T00:58:53.886Z,79.70
2022-07-27T01:01:21.438Z,79.50
2022-07-27T01:03:48.980Z,78.80
2022-07-27T01:06:23.298Z,78.60
2022-07-27T01:09:18.490Z,78.10
2022-07-27T01:11:47.640Z,77.70
2022-07-27T01:14:16.696Z,78.00
2022-07-27T01:16:44.713Z,77.70
2022-07-27T01:19:14.356Z,77.60
2022-07-27T01:21:41.892Z,77.70
2022-07-27T01:24:09.710Z,77.90
2022-07-27T01:26:39.054Z,78.30
2022-07-27T01:29:06.666Z,78.60
2022-07-27T01:31:34.052Z,78.80
2022-07-27T01:34:01.612Z,79.20
2022-07-27T01:36:29.001Z,79.40
2022-07-27T01:38:56.932Z,79.60
2022-07-27T01:41:24.647Z,79.80
2022-07-27T01:43:51.967Z,80.00
2022-07-27T01:46:19.310Z,80.10
2022-07-27T01:48:46.963Z,80.20
2022-07-27T01:51:14.538Z,80.40
2022-07-27T01:53:41.972Z,80.40
2022-07-27T01:56:13.313Z,80.60
2022-07-27T01:58:43.108Z,80.70
2022-07-27T02:01:11.048Z,81.10
2022-07-27T02:03:38.323Z,81.50
2022-07-27T02:06:06.427Z,81.70
2022-07-27T02:08:35.308Z,81.60
2022-07-27T02:11:21.772Z,82.00
2022-07-27T02:13:49.964Z,82.40
2022-07-27T02:16:18.768Z,83.40
2022-07-27T02:18:48.668Z,83.30
2022-07-27T02:21:16.507Z,83.30
2022-07-27T02:23:45.366Z,83.70
2022-07-27T02:26:12.781Z,84.00
2022-07-27T02:28:40.075Z,84.50
2022-07-27T02:31:07.474Z,84.20
2022-07-27T02:33:34.928Z,84.90
2022-07-27T02:36:02.595Z,85.50
2022-07-27T02:38:29.807Z,86.10
2022-07-27T02:40:57.125Z,85.30
2022-07-27T02:43:24.408Z,86.00
2022-07-27T02:45:52.617Z,85.00
2022-07-27T02:48:20.227Z,84.50
2022-07-27T02:50:48.537Z,84.30
2022-07-27T02:53:15.955Z,84.00
2022-07-27T02:55:43.517Z,83.90
2022-07-27T02:58:10.939Z,84.10
2022-07-27T03:00:38.465Z,84.30
2022-07-27T03:03:05.873Z,84.40
2022-07-27T03:05:33.807Z,84.20
2022-07-27T03:08:01.717Z,84.30
2022-07-27T03:10:29.059Z,84.40
2022-07-27T03:12:56.518Z,84.30
2022-07-27T03:15:24.579Z,84.40
2022-07-27T03:17:54.338Z,84.70
2022-07-27T03:20:21.834Z,84.70
2022-07-27T03:22:49.222Z,85.10
2022-07-27T03:25:16.568Z,85.50
2022-07-27T03:27:43.884Z,86.30
2022-07-27T03:30:11.672Z,86.40
2022-07-27T03:32:38.952Z,86.40
2022-07-27T03:35:06.817Z,85.90
2022-07-27T03:37:34.889Z,86.40
2022-07-27T03:40:02.147Z,86.80
2022-07-27T03:42:29.348Z,87.80
2022-07-27T03:44:56.850Z,88.40
2022-07-27T03:47:25.263Z,88.70
2022-07-27T03:49:53.179Z,88.30
2022-07-27T03:52:21.052Z,88.40
2022-07-27T03:54:48.588Z,88.50
2022-07-27T03:57:15.998Z,89.20
2022-07-27T03:59:43.266Z,88.70
2022-07-27T04:02:10.840Z,88.70
2022-07-27T04:04:38.129Z,87.80
2022-07-27T04:07:05.481Z,87.60
2022-07-27T04:09:33.006Z,88.00
2022-07-27T04:12:00.595Z,88.60
2022-07-27T04:14:28.258Z,89.40
2022-07-27T04:16:55.856Z,90.10
2022-07-27T04:19:23.391Z,90.30
2022-07-27T04:21:50.602Z,90.20
2022-07-27T04:24:17.822Z,90.20
2022-07-27T04:26:45.031Z,90.20
2022-07-27T04:29:15.749Z,90.00
2022-07-27T04:31:47.081Z,90.00
2022-07-27T04:34:14.457Z,90.20
2022-07-27T04:36:41.824Z,90.00
2022-07-27T04:39:09.436Z,90.10
2022-07-27T04:41:37.060Z,90.00
2022-07-27T04:44:04.477Z,90.30
2022-07-27T04:46:31.830Z,89.70
2022-07-27T04:48:59.289Z,89.00
2022-07-27T04:51:29.009Z,90.00
2022-07-27T04:54:00.038Z,89.50
2022-07-27T04:56:27.651Z,90.00
2022-07-27T04:58:55.685Z,90.00
2022-07-27T05:01:23.614Z,90.20
2022-07-27T05:03:51.334Z,86.20
2022-07-27T05:06:19.388Z,86.00
2022-07-27T05:08:46.729Z,86.20
2022-07-27T05:11:13.994Z,86.70
2022-07-27T05:13:41.752Z,85.50
2022-07-27T05:16:12.326Z,84.80
2022-07-27T05:18:40.606Z,84.50
2022-07-27T05:21:08.684Z,84.60
2022-07-27T05:23:37.018Z,84.00
2022-07-27T05:26:04.526Z,83.70
2022-07-27T05:28:31.970Z,83.80
2022-07-27T05:30:59.219Z,83.30
2022-07-27T05:33:26.460Z,82.00
2022-07-27T05:35:55.413Z,81.10
2022-07-27T05:38:23.279Z,78.40
2022-07-27T05:40:50.536Z,74.80
2022-07-27T05:43:17.913Z,74.80
2022-07-27T05:45:45.405Z,75.50
2022-07-27T05:48:12.797Z,73.70
2022-07-27T05:50:40.058Z,72.50
2022-07-27T05:53:07.556Z,72.10
2022-07-27T05:55:34.828Z,70.30
2022-07-27T05:58:02.311Z,70.60
2022-07-27T06:00:29.776Z,68.90
2022-07-27T06:02:57.151Z,68.60
2022-07-27T06:05:24.588Z,67.10
2022-07-27T06:08:01.025Z,66.20
2022-07-27T06:10:33.914Z,66.10
2022-07-27T06:13:06.966Z,66.20
2022-07-27T06:15:35.100Z,65.00
2022-07-27T06:18:04.032Z,64.80
2022-07-27T06:20:31.572Z,63.90
2022-07-27T06:23:00.637Z,63.80
2022-07-27T06:25:34.244Z,63.80
2022-07-27T06:28:06.410Z,63.40
2022-07-27T06:30:33.866Z,62.30
2022-07-27T06:33:07.615Z,62.00
2022-07-27T06:35:37.857Z,61.70
2022-07-27T06:38:07.127Z,61.50
2022-07-27T06:40:34.707Z,60.70
2022-07-27T06:43:02.064Z,60.30
2022-07-27T06:45:29.415Z,60.90
2022-07-27T06:47:56.992Z,60.50
2022-07-27T06:50:24.911Z,61.10
2022-07-27T06:52:52.520Z,59.80
2022-07-27T06:55:19.999Z,59.60
2022-07-27T06:57:47.267Z,59.80
2022-07-27T07:00:15.841Z,59.80
2022-07-27T07:02:53.517Z,59.20
2022-07-27T07:05:21.446Z,59.30
2022-07-27T07:07:49.072Z,59.40
2022-07-27T07:10:16.344Z,57.80
2022-07-27T07:12:43.927Z,58.20
2022-07-27T07:15:11.776Z,58.00
2022-07-27T07:17:39.862Z,57.10
2022-07-27T07:20:08.324Z,56.90
2022-07-27T07:22:35.673Z,57.10
2022-07-27T07:25:04.020Z,57.00
2022-07-27T07:27:31.682Z,57.10
2022-07-27T07:29:59.393Z,56.90
2022-07-27T07:32:33.043Z,56.20
2022-07-27T07:35:01.638Z,55.80
2022-07-27T07:37:33.426Z,55.30
2022-07-27T07:40:18.770Z,54.60
2022-07-27T07:42:58.310Z,54.40
2022-07-27T07:45:25.932Z,54.00
2022-07-27T07:47:54.179Z,53.90
2022-07-27T07:50:22.053Z,53.70
2022-07-27T07:52:53.975Z,54.20
2022-07-27T07:55:23.573Z,53.80
2022-07-27T07:57:51.714Z,53.90
2022-07-27T08:00:20.571Z,52.20
2022-07-27T08:02:48.917Z,52.30
2022-07-27T08:05:17.206Z,52.80
2022-07-27T08:07:45.601Z,53.50
2022-07-27T08:10:15.236Z,52.40
2022-07-27T08:12:45.084Z,52.40
2022-07-27T08:15:13.629Z,53.20
2022-07-27T08:17:41.532Z,52.20
2022-07-27T08:20:09.546Z,52.80
2022-07-27T08:22:37.030Z,52.90
2022-07-27T08:25:05.817Z,53.20
2022-07-27T08:27:39.112Z,53.10
2022-07-27T08:30:11.613Z,51.70
2022-07-27T08:32:50.247Z,52.00
2022-07-27T08:35:22.613Z,52.00
2022-07-27T08:37:50.243Z,51.50
2022-07-27T08:43:07.592Z,52.80
2022-07-27T08:45:35.365Z,52.90
2022-07-27T08:48:04.244Z,52.70
2022-07-27T08:50:31.656Z,53.20
2022-07-27T08:53:08.285Z,53.30
2022-07-27T08:55:42.235Z,53.00
2022-07-27T08:58:10.671Z,53.80
2022-07-27T09:00:41.275Z,53.90
2022-07-27T09:03:16.354Z,53.40
2022-07-27T09:05:49.255Z,53.30
2022-07-27T09:08:18.441Z,52.60
2022-07-27T09:10:45.866Z,53.90
2022-07-27T09:13:21.167Z,53.00
2022-07-27T09:16:17.039Z,52.50
2022-07-27T09:18:41.809Z,53.10
2022-07-27T09:21:24.770Z,52.50
2022-07-27T09:23:55.880Z,51.90
2022-07-27T09:26:33.572Z,49.60
2022-07-27T09:29:06.122Z,50.10
2022-07-27T09:31:44.551Z,51.50
2022-07-27T09:34:12.934Z,49.80
2022-07-27T09:36:54.658Z,50.70
2022-07-27T09:39:24.510Z,51.60
2022-07-27T09:41:55.342Z,51.70
2022-07-27T09:44:42.627Z,50.90
2022-07-27T09:47:23.986Z,51.00
2022-07-27T09:49:51.405Z,52.10
2022-07-27T09:52:26.132Z,49.80
2022-07-27T09:54:53.748Z,50.20
2022-07-27T09:57:21.318Z,50.00
2022-07-27T09:59:48.765Z,48.00
2022-07-27T10:02:16.489Z,48.70
2022-07-27T10:04:44.759Z,49.10
2022-07-27T10:07:13.948Z,50.40
2022-07-27T10:09:42.235Z,50.30
2022-07-27T10:12:09.897Z,51.90
2022-07-27T10:14:37.269Z,52.80
2022-07-27T10:17:06.572Z,49.70
2022-07-27T10:19:48.197Z,49.60
2022-07-27T10:22:15.991Z,50.60
2022-07-27T10:24:43.679Z,49.70
2022-07-27T10:27:31.268Z,51.30
2022-07-27T10:29:59.346Z,47.70
2022-07-27T10:32:31.399Z,49.20
2022-07-27T10:35:00.027Z,47.90
2022-07-27T10:37:32.623Z,48.30
2022-07-27T10:40:24.856Z,48.30
2022-07-27T10:43:17.051Z,47.80
2022-07-27T10:45:50.532Z,48.70
2022-07-27T10:48:44.236Z,48.50
2022-07-27T10:51:16.782Z,48.20
2022-07-27T10:56:47.367Z,48.40
2022-07-27T10:59:15.145Z,46.40
2022-07-27T11:01:58.837Z,48.10
2022-07-27T11:04:26.670Z,46.70
2022-07-27T11:10:03.504Z,48.10
2022-07-27T11:12:31.929Z,47.20
2022-07-27T11:15:01.260Z,47.60
2022-07-27T11:20:23.730Z,44.30
2022-07-27T11:25:38.839Z,44.90
2022-07-27T11:28:09.664Z,44.30
2022-07-27T11:30:37.423Z,44.10
2022-07-27T11:33:05.637Z,45.60
2022-07-27T11:35:33.080Z,44.40
2022-07-27T11:38:06.601Z,44.70
2022-07-27T11:40:56.842Z,45.00
2022-07-27T11:43:38.966Z,45.60
2022-07-27T11:46:23.310Z,46.00
2022-07-27T11:49:07.004Z,46.40
2022-07-27T11:51:40.971Z,46.20
2022-07-27T11:54:30.411Z,43.20
2022-07-27T11:57:03.862Z,41.50
2022-07-27T11:59:39.722Z,44.30
2022-07-27T12:02:20.033Z,44.90
2022-07-27T12:04:49.754Z,44.60
2022-07-27T12:07:20.345Z,44.70
2022-07-27T12:09:57.281Z,45.90
2022-07-27T12:12:29.390Z,44.80
2022-07-27T12:15:16.673Z,45.60
2022-07-27T12:17:59.799Z,44.60
2022-07-27T12:20:35.191Z,45.60
2022-07-27T12:23:08.094Z,43.90
2022-07-27T12:25:36.774Z,45.20
2022-07-27T12:28:07.097Z,43.80
2022-07-27T12:30:45.648Z,44.40
2022-07-27T12:33:25.230Z,44.40
2022-07-27T12:35:52.608Z,43.70
2022-07-27T12:38:19.886Z,42.90
2022-07-27T12:40:58.175Z,44.50
2022-07-27T12:43:27.781Z,43.40
2022-07-27T12:45:56.030Z,43.30
2022-07-27T12:48:26.572Z,43.10
2022-07-27T12:51:02.658Z,41.10
2022-07-27T12:53:30.853Z,40.60
2022-07-27T12:56:05.389Z,40.80
2022-07-27T12:58:33.017Z,39.90
2022-07-27T13:01:01.273Z,40.60
2022-07-27T13:03:28.574Z,39.40
2022-07-27T13:05:55.845Z,39.80
2022-07-27T13:08:23.751Z,40.70
2022-07-27T13:10:54.130Z,39.80
2022-07-27T13:13:24.963Z,39.70
2022-07-27T13:15:52.932Z,40.80
2022-07-27T13:18:23.780Z,39.60
2022-07-27T13:20:51.963Z,39.50
2022-07-27T13:23:20.961Z,39.50
2022-07-27T13:25:48.515Z,39.40
2022-07-27T13:28:16.010Z,40.80
2022-07-27T13:30:43.478Z,39.00
2022-07-27T13:33:11.171Z,39.90
2022-07-27T13:35:38.397Z,39.70
2022-07-27T13:38:05.649Z,38.80
2022-07-27T13:40:35.278Z,39.10
2022-07-27T13:43:02.638Z,39.10
2022-07-27T13:45:43.179Z,39.40
2022-07-27T13:48:12.309Z,41.00
2022-07-27T13:50:40.060Z,40.10
2022-07-27T13:53:07.439Z,40.50
2022-07-27T13:55:35.538Z,40.70
2022-07-27T13:58:02.926Z,40.80
2022-07-27T14:00:30.202Z,39.90
2022-07-27T14:02:57.690Z,40.90
2022-07-27T14:05:25.661Z,41.00
2022-07-27T14:07:55.338Z,40.70
2022-07-27T14:10:42.210Z,39.00
2022-07-27T14:13:13.260Z,40.30
2022-07-27T14:15:54.327Z,39.70
2022-07-27T14:18:23.125Z,40.90
2022-07-27T14:20:50.853Z,40.70
2022-07-27T14:23:18.602Z,42.00
2022-07-27T14:25:46.508Z,41.70
2022-07-27T14:28:13.774Z,40.20
2022-07-27T14:30:41.423Z,39.60
2022-07-27T14:33:09.198Z,40.10
2022-07-27T14:35:40.528Z,39.20
2022-07-27T14:38:08.703Z,40.40
2022-07-27T14:40:35.994Z,40.70
2022-07-27T14:43:03.115Z,40.00
2022-07-27T14:45:45.180Z,40.10
2022-07-27T14:48:22.742Z,40.20
2022-07-27T14:50:52.611Z,40.30
2022-07-27T14:53:19.815Z,40.20
2022-07-27T14:55:48.645Z,40.30
2022-07-27T14:58:15.950Z,40.50
2022-07-27T15:00:43.253Z,42.00
2022-07-27T15:03:14.610Z,41.60
2022-07-27T15:05:50.492Z,42.50
2022-07-27T15:08:19.384Z,42.40
2022-07-27T15:10:47.384Z,43.60
2022-07-27T15:13:15.125Z,42.90
2022-07-27T15:15:42.342Z,41.90
2022-07-27T15:18:09.630Z,43.10
2022-07-27T15:20:36.892Z,42.10
2022-07-27T15:23:04.833Z,42.10
2022-07-27T15:25:32.445Z,42.50
2022-07-27T15:27:59.907Z,42.40
2022-07-27T15:30:27.163Z,42.10
2022-07-27T15:32:54.409Z,42.80
2022-07-27T15:35:21.889Z,43.10
2022-07-27T15:37:54.341Z,41.90
2022-07-27T15:40:37.971Z,42.40
2022-07-27T15:43:06.728Z,43.10
2022-07-27T15:45:39.026Z,43.80
2022-07-27T15:48:07.213Z,44.30
2022-07-27T15:50:35.462Z,44.40
2022-07-27T15:53:02.750Z,44.30
2022-07-27T15:55:29.873Z,44.50
2022-07-27T15:57:57.944Z,44.00
2022-07-27T16:00:25.758Z,44.40
2022-07-27T16:02:53.816Z,44.30
2022-07-27T16:05:21.823Z,44.80
2022-07-27T16:07:48.929Z,43.70
2022-07-27T16:10:15.980Z,43.70
2022-07-27T16:12:43.327Z,43.90
2022-07-27T16:15:10.626Z,43.30
2022-07-27T16:17:37.727Z,44.10
2022-07-27T16:20:05.131Z,43.60
2022-07-27T16:22:34.588Z,43.60
2022-07-27T16:25:01.685Z,43.80
2022-07-27T16:27:29.112Z,44.40
2022-07-27T16:29:56.162Z,44.10
2022-07-27T16:32:23.282Z,44.10
2022-07-27T16:34:50.471Z,44.30
2022-07-27T16:37:17.532Z,44.60
2022-07-27T16:39:44.801Z,44.40
2022-07-27T16:42:11.896Z,44.90
2022-07-27T16:44:40.298Z,45.40
2022-07-27T16:47:07.620Z,46.90
2022-07-27T16:49:36.809Z,45.90
2022-07-27T16:52:05.034Z,46.30
2022-07-27T16:54:38.691Z,46.90
2022-07-27T16:57:06.948Z,47.00
2022-07-27T16:59:34.165Z,46.70
2022-07-27T17:02:01.319Z,47.00
2022-07-27T17:04:28.551Z,47.20
2022-07-27T17:06:55.930Z,47.20
2022-07-27T17:09:23.161Z,47.50
2022-07-27T17:11:50.556Z,48.30
2022-07-27T17:14:21.352Z,48.60
2022-07-27T17:16:52.196Z,48.60
2022-07-27T17:19:20.236Z,48.40
2022-07-27T17:21:48.209Z,47.90
2022-07-27T17:24:15.394Z,48.00
2022-07-27T17:26:42.482Z,48.20
2022-07-27T17:29:09.951Z,48.40
2022-07-27T17:31:37.562Z,48.40
2022-07-27T17:34:04.742Z,48.60
2022-07-27T17:36:31.772Z,48.70
2022-07-27T17:38:59.204Z,49.10
2022-07-27T17:41:26.404Z,49.60
2022-07-27T17:43:54.680Z,49.00
2022-07-27T17:46:23.397Z,48.60
2022-07-27T17:48:51.093Z,48.30
2022-07-27T17:51:18.575Z,48.10
2022-07-27T17:53:45.672Z,45.70
2022-07-27T17:56:13.484Z,44.40
2022-07-27T17:58:43.181Z,44.60
2022-07-27T18:01:10.558Z,44.80
2022-07-27T18:03:37.783Z,45.30
2022-07-27T18:06:04.922Z,47.50
2022-07-27T18:08:32.416Z,49.40
2022-07-27T18:10:59.710Z,50.20
2022-07-27T18:13:39.313Z,51.40
2022-07-27T18:16:09.556Z,52.30
2022-07-27T18:18:37.455Z,52.80
2022-07-27T18:21:05.469Z,53.10
2022-07-27T18:23:33.462Z,53.30
2022-07-27T18:26:01.033Z,53.50
2022-07-27T18:28:28.251Z,53.80
2022-07-27T18:30:55.531Z,53.60
2022-07-27T18:33:22.893Z,53.70
2022-07-27T18:35:50.698Z,53.70
2022-07-27T18:38:18.432Z,54.00
2022-07-27T18:40:46.950Z,53.80
2022-07-27T18:43:15.006Z,53.90
2022-07-27T18:45:42.229Z,54.10
2022-07-27T18:48:10.368Z,54.10
2022-07-27T18:50:39.675Z,54.30
2022-07-27T18:53:07.684Z,54.00
2022-07-27T18:55:34.826Z,53.80
2022-07-27T18:58:01.993Z,53.70
2022-07-27T19:00:30.966Z,54.30
2022-07-27T19:02:58.486Z,54.40
2022-07-27T19:05:40.333Z,54.90
2022-07-27T19:08:13.096Z,55.10
2022-07-27T19:10:44.453Z,55.60
2022-07-27T19:13:12.275Z,55.40
2022-07-27T19:15:40.236Z,55.90
2022-07-27T19:18:07.732Z,56.20
2022-07-27T19:20:36.604Z,56.80
2022-07-27T19:23:04.506Z,56.20
2022-07-27T19:25:34.081Z,57.20
2022-07-27T19:28:02.272Z,56.80
2022-07-27T19:30:29.475Z,56.40
2022-07-27T19:32:56.910Z,56.00
2022-07-27T19:35:24.017Z,56.00
2022-07-27T19:37:51.110Z,55.80
2022-07-27T19:40:43.938Z,56.00
2022-07-27T19:43:05.646Z,55.60
2022-07-27T19:45:32.781Z,55.70
2022-07-27T19:48:01.686Z,56.30
2022-07-27T19:50:29.481Z,56.70
2022-07-27T19:52:56.601Z,56.60
2022-07-27T19:55:23.753Z,55.90
2022-07-27T19:57:50.910Z,56.20
2022-07-27T20:00:18.214Z,56.50
2022-07-27T20:02:45.541Z,56.80
2022-07-27T20:05:12.770Z,57.70
2022-07-27T20:07:40.027Z,57.90
2022-07-27T20:10:07.368Z,58.80
2022-07-27T20:12:34.961Z,59.40
2022-07-27T20:15:02.486Z,59.60
2022-07-27T20:17:30.963Z,60.30
2022-07-27T20:19:58.220Z,61.10
2022-07-27T20:22:25.425Z,61.30
2022-07-27T20:24:53.339Z,61.30
2022-07-27T20:27:22.218Z,61.40
2022-07-27T20:29:49.821Z,60.90
2022-07-27T20:32:17.503Z,60.30
2022-07-27T20:34:44.692Z,59.50
2022-07-27T20:37:13.137Z,59.30
2022-07-27T20:39:40.638Z,59.40
2022-07-27T20:42:07.861Z,60.00
2022-07-27T20:44:34.818Z,60.10
2022-07-27T20:47:02.069Z,60.40
2022-07-27T20:49:29.580Z,60.80
2022-07-27T20:51:56.898Z,61.50
2022-07-27T20:54:28.890Z,62.90
2022-07-27T20:56:58.238Z,62.80
2022-07-27T20:59:26.449Z,63.90
2022-07-27T21:01:54.458Z,64.70
2022-07-27T21:04:22.479Z,65.50
2022-07-27T21:06:51.068Z,65.10
2022-07-27T21:09:18.420Z,65.40
2022-07-27T21:11:45.503Z,65.50
2022-07-27T21:14:13.112Z,65.70
2022-07-27T21:16:40.692Z,65.80
2022-07-27T21:19:07.965Z,65.80
2022-07-27T21:21:35.188Z,66.20
2022-07-27T21:24:18.640Z,66.10
2022-07-27T21:26:48.847Z,66.30
2022-07-27T21:29:16.230Z,66.50
2022-07-27T21:31:46.901Z,66.60
2022-07-27T21:34:19.500Z,66.60
2022-07-27T21:36:46.899Z,66.10
2022-07-27T21:39:14.978Z,66.00
2022-07-27T21:41:42.237Z,64.50
2022-07-27T21:44:09.818Z,63.80
2022-07-27T21:46:37.516Z,63.10
2022-07-27T21:49:04.955Z,63.00
2022-07-27T21:51:32.483Z,63.10
2022-07-27T21:54:00.056Z,62.90
2022-07-27T21:56:28.826Z,62.60
2022-07-27T21:58:56.176Z,62.50
2022-07-27T22:01:23.669Z,62.00
2022-07-27T22:03:51.143Z,62.00
2022-07-27T22:06:18.276Z,61.80
2022-07-27T22:08:46.375Z,61.40
2022-07-27T22:11:13.878Z,61.30
2022-07-27T22:13:41.077Z,61.00
2022-07-27T22:16:09.313Z,60.80
2022-07-27T22:18:36.689Z,60.60
2022-07-27T22:21:03.866Z,60.80
2022-07-27T22:23:31.270Z,61.00
2022-07-27T22:25:58.391Z,61.00
2022-07-27T22:28:26.242Z,61.30
2022-07-27T22:31:00.161Z,61.90
2022-07-27T22:33:44.483Z,61.60
2022-07-27T22:36:12.302Z,61.80
2022-07-27T22:38:39.857Z,61.70
2022-07-27T22:41:07.254Z,62.10
2022-07-27T22:43:34.523Z,62.30
2022-07-27T22:46:05.113Z,62.60
2022-07-27T22:48:32.686Z,62.80
2022-07-27T22:50:59.908Z,62.80
2022-07-27T22:53:27.046Z,62.60
2022-07-27T22:55:54.168Z,62.30
2022-07-27T22:58:21.923Z,62.30
2022-07-27T23:00:49.356Z,62.00
2022-07-27T23:03:16.639Z,62.10
2022-07-27T23:05:43.815Z,61.90
2022-07-27T23:08:10.961Z,62.10
2022-07-27T23:10:47.304Z,62.10
2022-07-27T23:13:15.160Z,62.40
2022-07-27T23:15:43.063Z,62.20
2022-07-27T23:18:10.396Z,62.20
2022-07-27T23:20:37.731Z,62.20
2022-07-27T23:23:15.676Z,62.00
2022-07-27T23:25:48.131Z,62.10
2022-07-27T23:28:16.309Z,61.70
2022-07-27T23:30:44.006Z,61.60
2022-07-27T23:33:11.514Z,61.90
2022-07-27T23:35:38.683Z,62.70
2022-07-27T23:38:05.868Z,62.30
2022-07-27T23:40:33.018Z,62.50
2022-07-27T23:43:00.290Z,62.60
2022-07-27T23:45:27.460Z,62.80
2022-07-27T23:47:54.921Z,63.10
2022-07-27T23:50:22.849Z,63.10
2022-07-27T23:52:50.254Z,63.00
2022-07-27T23:55:17.785Z,63.30
2022-07-27T23:57:44.884Z,63.20
